メインページ
METAR-TAF:

METAR-TAF

空港 :

ワットタイ国際空港

ヴィエンチャン, ラオス

緯度: 17-57N, 経度: 102-34E, 海抜: 171m

現時点の気象観測

当レポートは23分前の23:00(UTC)に作成
西/北西の風 2kt
気温 25°C
湿度 100%
気圧 1009 hPa
視程: 5000m
高度4000ftの雲は散在している
高度10000ftの雲は散在している

METAR: VLVT 242300Z 30002KT 5000 BR SCT040 SCT100 25/25 Q1009 NOSIG

時間: 06:23 (23:23 UTC)

予報

当レポートは6時間23分前の17:00(UTC)に作成
予報は24日の 18時(UTC)から 25日の 18時(UTC)まで有効
の風 2kt
視程: 4000m
高度1600ftの雲はほとんどない
高度5000ftの雲は散在している
高度10000ftの雲は散在している
25日の 00時(UTC)から 25日の 05時(UTC)まで一時的に
視程: 6000m
高度1600ftの雲はほとんどない
高度4000ftの千切れ雲あり
高度8300ftの雲は散在している

TAF: VLVT 241700Z 2418/2518 18002KT 4000 BR FEW016 SCT050 SCT100 TEMPO 2500/2505 6000 FEW016 BKN040 SCT083

4,000以上の空港の気象観測と天気予報(METAR報とTAF報)

利用可能な観測所は地図上に黄色い丸と赤い丸で示す。

丸の上にカーソルを重ねると観測所名を参照できる。

次にクリックすると気象観測と天気予報を参照できる。

マップの切り替え:黒色「×」印の緑ボタンをクリックして拡大、「-」印の緑ボタンをクリックして縮小、緑色の三角印をクリックして隣りの地図に切り替え


METAR-TAF: